Gaslog data for James' 1989 Civic Hatch

Go Back   Gas Savers - Fuel Efficiency Forum > Garage > James' 1989 Civic Hatch
Add Garage Entry Top Ten Entries Search the Garage


Welcome, non logged-in user
Your Garage


Gaslog data for James' 1989 Civic Hatch
Date Distance Fuel Used Cost of Fuel Notes MPG(US)
04/20/2014 243.1 9.146 3.659 26.57
04/08/2014 232.5 9.063 3.549 25.65
03/26/2014 235.1 9.453 3.489 24.87
03/09/2014 256.8 9.58 3.399 26.80
02/21/2014 231.5 8.886 3.259 26.05
02/09/2014 242.5 8.785 3.159 27.60
01/30/2014 238.4 9.352 3.099 25.49
01/14/2014 226.8 9.215 3.179 24.61
12/30/2013 233.7 9.251 3.199 25.26
12/11/2013 218.8 9.55 3.159 22.91
11/24/2013 244.2 9.027 3.299 27.05
11/04/2013 245 9.276 3.079 26.41
10/15/2013 239.6 9.484 3.199 25.26
09/27/2013 216 8.604 3.119 25.10
09/07/2013 205.1 8.745 3.349 23.45
08/20/2013 224.4 9.243 3.499 24.27
08/02/2013 237.8 9.37 3.559 25.37
07/12/2013 233.4 8.87 3.579 26.31
06/26/2013 315.5 9.212 3.499 34.24
06/16/2013 262.9 9.689 3.379 27.13
06/01/2013 252.9 8.827 3.399 28.65
05/27/2013 282.6 8.559 3.499 33.01
05/16/2013 236.6 9.228 3.539 25.63
05/03/2013 235.5 9.307 3.439 25.30
04/17/2013 280.3 8.704 3.419 32.20
04/06/2013 257.8 8.983 3.579 28.69
03/25/2013 263.7 9.246 3.699 28.52
03/15/2013 262.5 8.882 3.599 29.55
02/26/2013 270.4 9.594 3.719 28.18
02/09/2013 244.1 9.02 3.499 27.06
01/24/2013 259.5 8.771 3.239 29.58
01/07/2013 273.3 9.402 3.249 29.06
12/23/2012 269.6 9.389 3.059 28.71
12/05/2012 314.4 9.485 3.039 33.14
12/01/2012 297.2 8.755 2.999 33.94
11/27/2012 267.1 9.842 2.999 27.13
11/09/2012 254.8 8.988 3.119 28.34
10/23/2012 240.3 8.595 3.329 27.95
10/01/2012 256.7 9.29 3.449 27.63
09/11/2012 220.5 8.845 3.599 24.92
08/28/2012 223.6 7.735 3.699 28.90
08/17/2012 245.7 9.306 3.599 26.40
08/03/2012 238 8.54 3.399 27.86
07/22/2012 238.1 9.38 3.399 25.38
07/01/2012 249.4 8.915 3.129 27.97
06/23/2012 205.4 7.436 3.199 27.62
06/10/2012 258.6 9.292 3.279 27.83
05/28/2012 230.7 9.194 3.299Really frustrated with this MPG drop 25.09
05/17/2012 231.7 8.858 3.459Finally have A/C again 26.15
05/02/2012 248.5 8.759 3.599 28.37
04/16/2012 278.4 8.8 3.829 31.63
03/29/2012 260.2 8.851 3.899 29.39
03/14/2012 285.1 9.24 3.859 30.85
03/01/2012 274.3 8.64 3.579 31.74
02/18/2012 280.2 9.284 3.499 30.18
02/02/2012 294.7 9.66 3.409 30.50
01/19/2012 287.5 9.777 0 29.40
12/19/2011 278.5 9.67 2.959 28.80
12/03/2011 311.2 9.53 3.049 32.65
11/21/2011 257.7 8.241 3.129Not sure why my MPG is dwindling 31.27
11/10/2011 271.2 7.587 3.259 35.74
11/05/2010 296 8.45 2.659 35.02
06/07/2010 300.8 9.165 2.539 32.82
05/24/2010 279.8 7.937 2.689 35.25
04/04/2010 359.6 9.77 2.689 36.80
03/17/2010 334.7 9.351 2.639 35.79
03/12/2010 324.6 9.76 2.639 33.25
02/25/2010 313.5 8.616 2.519 36.38
02/16/2010 274.5 8.049 2.409 34.10
01/27/2010 254.7 7.825 2.469Car has mostly sat for the past few months 32.54
10/28/2009 302.9 8.813 2.599 34.36
10/22/2009 273.8 8.572 2.499 31.94
06/05/2009 324.2 9.534 2.479 34.00
04/19/2009 312.6 8.721 1.969 35.84
04/11/2009 326.6 8.754 1.999Adjusted the timing a bit 37.30
04/04/2009 297.2 9.722 1.969Getting frustrated with the MPG drop30.56
03/29/2009 238.8 7.603 1.979Noticed the injector o-rings are leaking 31.40
03/09/2009 308.9 8.795 1.779Not as much highway this time, but was still hoping to be closer to 40 MPG35.12
03/02/2009 307.8 8.536 1.839Tank number two with the new engine. Hoping to keep inching up near 40 mpg as the engine breaks in. 36.05
02/22/2009 247 7.749 0First tank with the new/rebuilt engine and new/rebuilt Si transmission - 246,722.3 miles on the clock. 31.87
10/31/2008 333.5 9.181 2.199Driving the Civic again! 36.32
08/02/2008 290.5 9.655 3.699More A/C problems - compressor finally died 30.08
07/05/2008 257.6 7.981 3.939Even more air conditioning work. The r134a conversion just isn't working adequately, going to revert to r12. It seems my 'upgraded' fans are actually cooling too well, car is taking forever to get up to normal operating temp, and during evening driving the car never actually gets to operating temp. 32.27
06/30/2008 322.4 9.852 3.899Repaired/Replaced A/C this past week. 32.72
06/02/2008 311.8 8.449 3.839 36.90
05/15/2008 392.4 9.762 3.659 40.19
05/08/2008 371.9 10.016 3.499 37.13
05/02/2008 352.8 9.215 3.46 38.28
04/16/2008 381.8 9.876 0 38.65
04/08/2008 325.6 10.07 3.279 32.33
03/30/2008 330 8.781 3.199 37.58
03/15/2008 345 10.329 0 33.40
02/28/2008 361.2 9.892 0 36.51
02/17/2008 337.8 9.867 0 34.23
02/11/2008 341.7 10.376 0 32.93
01/24/2008 315.3 9.283 0 33.96
01/10/2008 325.8 9.115 0 35.74
12/27/2007 291.5 8.867 0 32.87
12/14/2007 347 10.022 0 34.62
12/05/2007 387.3 9.514 0 40.70
11/26/2007 338.5 9.228 0 36.68
11/12/2007 362 9.028 0 40.09


All times are GMT -6. The time now is 07:48 AM.


Copyright 2005-2008 GasSavers.Org